Time;durP1;ratioP1;P1;durP2;ratioP2;P2;SDS_P1;SDS_P2;PMS_P1;PMS_P2;Temp;Humidity;BMP_temperature;BMP_pressure;BME280_temperature;BME280_humidity;BME280_pressure;Samples;Min_cycle;Max_cycle;Signal;HPM_P1;HPM_P2
2023/09/03 00:02:17;;;;;;;2.10;1.90;;;17.40;99.90;;;;;;6283945;22;20392;-86
2023/09/03 00:04:51;;;;;;;1.00;1.00;;;17.00;99.90;;;;;;6288108;22;20400;-90
2023/09/03 00:07:24;;;;;;;0.90;0.90;;;16.90;99.90;;;;;;6283500;22;20409;-86
2023/09/03 00:09:53;;;;;;;1.00;1.00;;;17.60;99.90;;;;;;6284089;22;20453;-86
2023/09/03 00:12:21;;;;;;;0.90;0.90;;;16.90;99.90;;;;;;6284073;22;20395;-84
2023/09/03 00:14:49;;;;;;;1.67;1.57;;;17.20;99.90;;;;;;6283258;22;20781;-86
2023/09/03 00:17:16;;;;;;;1.40;1.30;;;17.80;99.90;;;;;;6284399;22;20739;-86
2023/09/03 00:19:43;;;;;;;1.13;1.13;;;17.30;99.90;;;;;;6287673;22;20366;-84
2023/09/03 00:22:17;;;;;;;2.00;1.90;;;17.00;99.90;;;;;;6286760;22;20763;-85
2023/09/03 00:24:45;;;;;;;2.67;1.77;;;17.90;99.90;;;;;;6292793;22;20394;-85
2023/09/03 00:27:25;;;;;;;1.63;1.37;;;17.90;99.90;;;;;;6296541;22;20521;-87
2023/09/03 00:29:53;;;;;;;0.50;0.50;;;;;;;;;;6287504;22;20469;-84
2023/09/03 00:32:22;;;;;;;1.53;1.43;;;16.90;99.90;;;;;;6283608;22;20762;-83
2023/09/03 00:34:54;;;;;;;1.53;0.90;;;;;;;;;;6283958;22;20381;-86
2023/09/03 00:37:22;;;;;;;6.40;3.37;;;;;;;;;;6283092;22;20410;-86
2023/09/03 00:39:53;;;;;;;2.33;2.20;;;;;;;;;;6281127;22;20476;-86
2023/09/03 00:42:20;;;;;;;0.80;0.80;;;;;;;;;;6280616;22;20395;-85
2023/09/03 00:44:49;;;;;;;0.70;0.70;;;16.90;99.90;;;;;;6282336;22;20403;-85
2023/09/03 00:47:18;;;;;;;0.70;0.70;;;16.90;99.90;;;;;;6280938;22;20794;-84
2023/09/03 00:49:46;;;;;;;1.30;1.30;;;;;;;;;;6281334;22;20441;-84
2023/09/03 00:52:18;;;;;;;0.80;0.80;;;;;;;;;;6280445;22;20805;-85
2023/09/03 00:54:50;;;;;;;1.50;1.47;;;16.90;99.90;;;;;;6280978;22;20694;-86
2023/09/03 00:57:19;;;;;;;2.40;1.83;;;16.80;99.90;;;;;;6255771;22;20386;-83
2023/09/03 00:59:47;;;;;;;0.60;0.60;;;16.90;99.90;;;;;;6282230;22;20388;-86
2023/09/03 01:02:17;;;;;;;1.10;1.00;;;16.90;99.90;;;;;;6280425;22;20427;-87
2023/09/03 01:04:49;;;;;;;2.50;2.40;;;16.80;99.90;;;;;;6281137;22;20415;-85
2023/09/03 01:07:26;;;;;;;2.30;2.00;;;16.90;99.90;;;;;;6281574;22;20380;-89
2023/09/03 01:10:13;;;;;;;0.60;0.60;;;;;;;;;;6281097;22;20414;-83
2023/09/03 01:13:03;;;;;;;2.77;2.60;;;16.70;99.90;;;;;;6280394;22;20402;-85
2023/09/03 01:15:39;;;;;;;1.17;1.17;;;16.70;99.90;;;;;;6286442;22;20368;-85
2023/09/03 01:18:17;;;;;;;;;;;;;;;;;;;;;
2023/09/03 01:20:51;;;;;;;0.83;0.83;;;;;;;;;;6283188;22;20416;-90
2023/09/03 01:23:51;;;;;;;1.17;1.07;;;16.80;99.90;;;;;;6281117;22;20372;-87
2023/09/03 01:27:11;;;;;;;1.30;1.30;;;16.80;99.90;;;;;;6280288;22;20581;-86
2023/09/03 01:29:47;;;;;;;3.07;2.93;;;18.50;99.90;;;;;;6229997;22;20447;-88
2023/09/03 01:32:14;;;;;;;5.80;3.07;;;;;;;;;;6279014;22;20383;-84
2023/09/03 01:34:42;;;;;;;1.00;1.00;;;;;;;;;;6281055;22;20592;-85
2023/09/03 01:37:11;;;;;;;1.07;1.07;;;16.70;99.90;;;;;;6280256;22;20616;-85
2023/09/03 01:39:38;;;;;;;0.40;0.40;;;;;;;;;;6279264;22;20428;-86
2023/09/03 01:42:06;;;;;;;1.03;1.00;;;;;;;;;;6278455;22;20434;-83
2023/09/03 01:44:34;;;;;;;1.63;1.57;;;;;;;;;;6279617;22;20422;-83
2023/09/03 01:47:35;;;;;;;1.13;1.13;;;16.40;99.90;;;;;;6277710;22;20442;-83
2023/09/03 01:50:29;;;;;;;2.07;1.97;;;16.60;99.90;;;;;;6281171;22;20421;-87
2023/09/03 01:53:17;;;;;;;0.77;0.77;;;16.50;99.90;;;;;;6280931;22;20422;-86
2023/09/03 01:55:57;;;;;;;1.17;1.17;;;17.10;99.90;;;;;;6280598;22;20368;-85
2023/09/03 01:58:27;;;;;;;0.50;0.50;;;16.60;99.90;;;;;;6281008;22;20366;-85
2023/09/03 02:00:56;;;;;;;1.97;1.83;;;;;;;;;;6281660;22;20396;-85
2023/09/03 02:03:26;;;;;;;1.83;1.20;;;16.60;99.90;;;;;;6279286;22;20396;-85
2023/09/03 02:06:05;;;;;;;2.00;1.90;;;16.50;99.90;;;;;;6280268;22;20442;-86
2023/09/03 02:08:34;;;;;;;0.50;0.50;;;;;;;;;;6280472;22;20395;-85
2023/09/03 02:11:04;;;;;;;1.37;1.27;;;;;;;;;;6280783;22;20381;-86
2023/09/03 02:13:35;;;;;;;1.20;1.17;;;;;;;;;;6281310;22;20393;-86
2023/09/03 02:16:02;;;;;;;3.30;3.20;;;;;;;;;;6278046;22;20362;-85
2023/09/03 02:18:31;;;;;;;4.17;3.97;;;;;;;;;;6278339;22;20402;-86
2023/09/03 02:21:00;;;;;;;1.27;1.27;;;16.40;99.90;;;;;;6279681;22;20388;-86
2023/09/03 02:23:29;;;;;;;1.67;1.57;;;;;;;;;;6285613;22;20396;-87
2023/09/03 02:26:01;;;;;;;8.20;4.20;;;16.10;99.90;;;;;;6289872;22;20400;-83
2023/09/03 02:28:34;;;;;;;1.23;1.23;;;16.10;99.90;;;;;;6282950;22;20380;-85
2023/09/03 02:31:07;;;;;;;1.83;1.73;;;;;;;;;;6279566;22;20838;-86
2023/09/03 02:33:44;;;;;;;2.00;1.90;;;;;;;;;;6277521;22;20371;-85
2023/09/03 02:36:14;;;;;;;0.73;0.73;;;;;;;;;;6282021;22;20376;-84
2023/09/03 02:38:48;;;;;;;1.43;1.33;;;15.80;99.90;;;;;;6287133;22;20402;-92
2023/09/03 02:44:00;;;;;;;2.50;2.33;;;;;;;;;;6286981;22;20444;-90
2023/09/03 02:46:41;;;;;;;1.00;1.00;;;;;;;;;;6317997;22;20353;-89
2023/09/03 02:49:23;;;;;;;1.27;1.27;;;;;;;;;;6320793;22;20430;-90
2023/09/03 02:51:56;;;;;;;0.83;0.83;;;15.60;99.90;;;;;;6281222;22;20429;-86
2023/09/03 02:54:26;;;;;;;1.47;1.37;;;;;;;;;;6310868;22;20915;-86
2023/09/03 02:59:43;;;;;;;1.07;1.07;;;15.50;99.90;;;;;;6332460;22;20411;-87
2023/09/03 03:02:15;;;;;;;1.37;1.37;;;;;;;;;;6330802;22;20394;-88
2023/09/03 03:05:02;;;;;;;2.40;2.20;;;15.40;99.90;;;;;;6326851;22;20420;-90
2023/09/03 03:07:48;;;;;;;;;;;;;;;;;;;;;
2023/09/03 03:10:25;;;;;;;1.10;1.10;;;15.40;99.90;;;;;;6312647;22;20467;-87
2023/09/03 03:12:58;;;;;;;2.17;2.07;;;15.30;99.90;;;;;;6310637;22;20389;-89
2023/09/03 03:15:34;;;;;;;2.60;2.40;;;;;;;;;;6312153;22;20430;-87
2023/09/03 03:18:15;;;;;;;0.90;0.90;;;;;;;;;;6310598;22;20575;-85
2023/09/03 03:20:44;;;;;;;2.97;2.87;;;;;;;;;;6311784;22;20496;-89
2023/09/03 03:23:13;;;;;;;1.53;1.43;;;15.30;99.90;;;;;;6311115;22;20892;-85
2023/09/03 03:25:54;;;;;;;0.97;0.93;;;15.20;99.90;;;;;;6312019;22;20353;-86
2023/09/03 03:28:24;;;;;;;0.93;0.93;;;;;;;;;;6311158;22;20451;-87
2023/09/03 03:30:55;;;;;;;1.37;1.03;;;;;;;;;;6309323;22;20450;-86
2023/09/03 03:33:23;;;;;;;0.73;0.73;;;;;;;;;;6309835;22;20454;-86
2023/09/03 03:35:53;;;;;;;1.63;1.33;;;;;;;;;;6284874;22;20461;-86
2023/09/03 03:38:37;;;;;;;1.87;1.77;;;15.10;99.90;;;;;;6311562;22;20444;-86
2023/09/03 03:41:18;;;;;;;2.10;1.37;;;15.10;99.90;;;;;;6312003;22;20383;-86
2023/09/03 03:43:49;;;;;;;1.77;1.33;;;15.00;99.90;;;;;;6313807;22;20398;-87
2023/09/03 03:46:23;;;;;;;1.37;1.27;;;;;;;;;;6313698;22;20371;-88
2023/09/03 03:49:00;;;;;;;1.80;1.70;;;;;;;;;;6312948;22;20363;-89
2023/09/03 03:52:03;;;;;;;;;;;;;;;;;;;;;
2023/09/03 03:55:08;;;;;;;2.33;2.20;;;;;;;;;;6294384;22;20575;-88
2023/09/03 03:57:37;;;;;;;2.43;1.53;;;;;;;;;;6319894;22;20616;-86
2023/09/03 04:00:06;;;;;;;0.60;0.60;;;;;;;;;;6314140;22;20407;-86
2023/09/03 04:02:51;;;;;;;2.07;1.97;;;15.00;99.90;;;;;;6312196;22;20466;-87
2023/09/03 04:05:28;;;;;;;2.20;2.00;;;14.90;99.90;;;;;;6313365;22;20401;-87
2023/09/03 04:07:59;;;;;;;2.03;1.93;;;;;;;;;;6312097;22;20367;-86
2023/09/03 04:10:29;;;;;;;0.60;0.60;;;;;;;;;;6313472;22;20484;-87
2023/09/03 04:12:58;;;;;;;1.67;1.57;;;;;;;;;;6312846;22;20398;-87
2023/09/03 04:15:29;;;;;;;2.13;1.30;;;;;;;;;;6314496;22;20387;-89
2023/09/03 04:18:12;;;;;;;1.27;1.20;;;;;;;;;;6314004;22;20463;-87
2023/09/03 04:20:47;;;;;;;1.27;1.27;;;;;;;;;;6320648;22;20382;-86
2023/09/03 04:23:48;;;;;;;2.63;2.43;;;14.90;99.90;;;;;;6328489;22;20372;-87
2023/09/03 04:26:19;;;;;;;1.20;1.10;;;15.00;99.90;;;;;;6326210;22;20415;-87
2023/09/03 04:29:02;;;;;;;1.00;1.00;;;15.00;99.90;;;;;;6314065;22;20370;-86
2023/09/03 04:31:48;;;;;;;1.70;1.60;;;15.10;99.90;;;;;;6314527;22;20387;-89
2023/09/03 04:34:22;;;;;;;2.00;1.90;;;;;;;;;;6313411;22;20394;-90
2023/09/03 04:37:03;;;;;;;1.17;1.07;;;;;;;;;;6316093;22;20801;-89
2023/09/03 04:39:49;;;;;;;0.60;0.60;;;15.20;99.90;;;;;;6314658;22;20403;-86
2023/09/03 04:42:36;;;;;;;1.37;1.27;;;15.20;99.90;;;;;;6312844;22;20415;-90
2023/09/03 04:45:10;;;;;;;2.50;2.33;;;15.30;99.90;;;;;;6313165;22;20371;-88
2023/09/03 04:47:58;;;;;;;0.60;0.60;;;15.30;99.90;;;;;;6312425;22;20459;-87
2023/09/03 04:50:53;;;;;;;1.98;1.88;;;;;;;;;;6313124;22;20426;-89
2023/09/03 04:53:39;;;;;;;1.00;1.00;;;15.40;99.90;;;;;;6270731;22;20250;-90
2023/09/03 04:56:18;;;;;;;2.30;2.20;;;15.50;99.90;;;;;;6316169;22;20499;-90
2023/09/03 04:58:56;;;;;;;2.60;1.83;;;;;;;;;;6314302;22;20469;-89
2023/09/03 05:01:34;;;;;;;1.20;1.17;;;15.50;99.90;;;;;;6313848;22;20394;-87
2023/09/03 05:04:05;;;;;;;2.70;2.50;;;;;;;;;;6318357;22;20381;-87
2023/09/03 05:06:38;;;;;;;1.43;1.27;;;;;;;;;;6323396;22;20414;-86
2023/09/03 05:09:11;;;;;;;1.63;1.53;;;;;;;;;;6267614;22;20439;-92
2023/09/03 05:11:54;;;;;;;3.50;3.30;;;;;;;;;;6298316;22;20498;-87
2023/09/03 05:14:25;;;;;;;1.23;1.23;;;;;;;;;;6320781;22;20447;-87
2023/09/03 05:16:53;;;;;;;2.53;2.33;;;;;;;;;;6311877;22;20406;-86
2023/09/03 05:19:22;;;;;;;0.80;0.80;;;16.00;99.90;;;;;;6312297;22;20604;-85
2023/09/03 05:21:51;;;;;;;1.50;1.40;;;16.00;99.90;;;;;;6312190;22;20394;-84
2023/09/03 05:24:19;;;;;;;2.40;1.73;;;15.60;99.90;;;;;;6312057;22;20398;-85
2023/09/03 05:26:59;;;;;;;2.47;1.57;;;16.30;99.90;;;;;;6323236;22;20387;-87
2023/09/03 05:29:27;;;;;;;1.90;1.80;;;16.30;99.90;;;;;;6325923;22;20413;-87
2023/09/03 05:31:56;;;;;;;4.53;4.20;;;16.50;99.90;;;;;;6325591;22;20464;-85
2023/09/03 05:34:27;;;;;;;1.03;1.03;;;16.40;99.90;;;;;;6327876;22;20390;-85
2023/09/03 05:37:02;;;;;;;1.93;1.83;;;16.40;99.90;;;;;;6330059;22;20399;-87
2023/09/03 05:39:33;;;;;;;1.00;1.00;;;16.50;99.90;;;;;;6329129;22;20392;-85
2023/09/03 05:42:00;;;;;;;3.17;2.87;;;16.60;99.90;;;;;;6322126;22;20409;-86
2023/09/03 05:44:28;;;;;;;0.90;0.90;;;16.50;99.90;;;;;;6310320;22;20381;-84
2023/09/03 05:46:55;;;;;;;2.50;2.30;;;16.60;99.90;;;;;;6311095;22;20380;-86
2023/09/03 05:49:22;;;;;;;2.23;2.13;;;16.60;99.90;;;;;;6313788;22;20420;-87
2023/09/03 05:51:49;;;;;;;0.80;0.80;;;16.60;99.90;;;;;;6313026;22;20395;-85
2023/09/03 05:54:16;;;;;;;2.70;2.50;;;16.70;99.90;;;;;;6312942;22;20389;-83
2023/09/03 05:56:46;;;;;;;2.57;2.40;;;16.80;99.90;;;;;;6312635;22;20390;-84
2023/09/03 05:59:15;;;;;;;1.30;1.27;;;17.00;99.90;;;;;;6312042;22;20394;-84
2023/09/03 06:01:42;;;;;;;3.97;2.87;;;17.00;99.90;;;;;;6318899;22;20404;-85
2023/09/03 06:04:14;;;;;;;0.70;0.70;;;17.10;99.90;;;;;;6317182;22;20645;-86
2023/09/03 06:06:48;;;;;;;0.73;0.73;;;17.20;99.90;;;;;;6315731;22;20402;-87
2023/09/03 06:09:18;;;;;;;1.43;1.37;;;17.20;99.90;;;;;;6313725;22;20395;-87
2023/09/03 06:11:49;;;;;;;1.40;1.30;;;17.30;99.90;;;;;;6325028;22;20417;-86
2023/09/03 06:14:16;;;;;;;1.97;1.87;;;17.30;99.90;;;;;;6326117;22;20440;-87
2023/09/03 06:16:43;;;;;;;1.93;1.67;;;17.50;99.90;;;;;;6315557;22;20391;-84
2023/09/03 06:19:13;;;;;;;0.70;0.70;;;17.60;99.90;;;;;;6314208;22;20440;-85
2023/09/03 06:21:41;;;;;;;1.57;1.47;;;18.00;99.90;;;;;;6312390;22;20391;-86
2023/09/03 06:24:12;;;;;;;2.80;2.70;;;18.20;99.90;;;;;;6314804;22;20459;-88
2023/09/03 06:26:39;;;;;;;0.90;0.90;;;18.40;99.90;;;;;;6312786;22;20354;-85
2023/09/03 06:29:06;;;;;;;3.20;3.00;;;18.50;99.90;;;;;;6312518;22;20404;-85
2023/09/03 06:31:33;;;;;;;2.30;2.20;;;18.80;99.90;;;;;;6311781;22;20422;-86
2023/09/03 06:34:03;;;;;;;0.90;0.90;;;19.10;99.90;;;;;;6313678;22;20377;-86
2023/09/03 06:36:32;;;;;;;2.40;2.30;;;19.70;99.90;;;;;;6312579;22;20365;-85
2023/09/03 06:39:03;;;;;;;2.33;2.13;;;19.80;99.90;;;;;;6311991;22;20383;-82
2023/09/03 06:41:30;;;;;;;3.30;2.20;;;19.90;99.90;;;;;;6313505;22;20394;-82
2023/09/03 06:43:57;;;;;;;2.07;1.97;;;20.40;99.90;;;;;;6313334;22;20401;-82
2023/09/03 06:46:26;;;;;;;1.53;1.43;;;20.50;99.90;;;;;;6311014;22;20427;-84
2023/09/03 06:48:54;;;;;;;1.00;1.00;;;20.50;99.90;;;;;;6308753;22;20394;-82
2023/09/03 06:51:21;;;;;;;0.63;0.63;;;20.10;99.90;;;;;;6309640;22;20422;-85
2023/09/03 06:53:48;;;;;;;1.53;1.23;;;20.10;99.90;;;;;;6309704;22;20392;-82
2023/09/03 06:56:15;;;;;;;1.67;1.57;;;20.00;99.90;;;;;;6325043;22;20393;-85
2023/09/03 06:58:43;;;;;;;0.90;0.90;;;20.00;99.90;;;;;;6330192;22;20359;-86
2023/09/03 07:01:10;;;;;;;0.70;0.70;;;20.00;99.90;;;;;;6326239;22;20579;-86
2023/09/03 07:03:40;;;;;;;0.80;0.80;;;20.20;99.90;;;;;;6317218;22;20372;-85
2023/09/03 07:06:07;;;;;;;1.80;1.70;;;20.20;99.90;;;;;;6313122;22;20681;-86
2023/09/03 07:08:34;;;;;;;3.77;2.10;;;20.10;99.90;;;;;;6286275;22;20429;-83
2023/09/03 07:11:02;;;;;;;3.17;2.97;;;20.20;99.90;;;;;;6312370;22;20475;-85
2023/09/03 07:13:29;;;;;;;0.50;0.50;;;20.50;99.90;;;;;;6309592;22;20421;-84
2023/09/03 07:15:56;;;;;;;1.63;1.53;;;21.00;99.90;;;;;;6311887;22;20390;-86
2023/09/03 07:18:25;;;;;;;0.77;0.77;;;21.50;99.90;;;;;;6317580;22;20361;-86
2023/09/03 07:21:05;;;;;;;3.57;3.37;;;22.10;99.90;;;;;;6314185;22;20341;-82
2023/09/03 07:23:32;;;;;;;1.70;1.60;;;21.90;99.90;;;;;;6312622;22;20372;-82
2023/09/03 07:26:11;;;;;;;0.80;0.80;;;21.80;99.90;;;;;;6312771;22;20401;-87
2023/09/03 07:28:54;;;;;;;1.97;1.87;;;22.50;99.90;;;;;;6314788;22;20372;-85
2023/09/03 07:31:24;;;;;;;3.87;3.67;;;23.50;99.90;;;;;;6318075;22;20412;-87
2023/09/03 07:33:51;;;;;;;3.10;2.60;;;23.90;99.90;;;;;;6313420;22;20417;-86
2023/09/03 07:36:18;;;;;;;2.43;2.33;;;24.50;99.90;;;;;;6312523;22;20514;-82
2023/09/03 07:38:45;;;;;;;1.47;1.47;;;25.10;99.90;;;;;;6311505;22;20472;-82
2023/09/03 07:41:12;;;;;;;1.20;1.20;;;25.20;99.90;;;;;;6311152;22;20577;-82
2023/09/03 07:43:40;;;;;;;2.27;2.07;;;25.10;99.90;;;;;;6310745;22;20398;-82
2023/09/03 07:46:07;;;;;;;0.90;0.90;;;25.60;99.90;;;;;;6312168;22;20357;-86
2023/09/03 07:48:34;;;;;;;1.10;1.10;;;26.30;99.90;;;;;;6285199;22;20416;-81
2023/09/03 07:51:01;;;;;;;1.10;1.10;;;26.40;99.90;;;;;;6313018;22;20502;-85
2023/09/03 07:53:29;;;;;;;0.93;0.93;;;26.50;99.30;;;;;;6310065;22;20401;-81
2023/09/03 07:55:58;;;;;;;1.80;1.70;;;27.10;97.60;;;;;;6310804;22;20766;-82
2023/09/03 07:58:30;;;;;;;2.27;2.17;;;27.20;96.80;;;;;;6316447;22;20576;-85
2023/09/03 08:00:57;;;;;;;1.07;1.00;;;27.50;94.90;;;;;;6314744;22;20401;-84
2023/09/03 08:03:34;;;;;;;1.53;1.43;;;27.20;94.60;;;;;;6310786;22;20709;-80
2023/09/03 08:06:05;;;;;;;1.10;1.10;;;27.00;97.20;;;;;;6311913;22;20779;-82
2023/09/03 08:08:33;;;;;;;2.97;1.83;;;27.30;94.90;;;;;;6314416;22;20430;-81
2023/09/03 08:11:01;;;;;;;1.67;1.20;;;27.00;94.00;;;;;;6311448;22;20464;-81
2023/09/03 08:13:28;;;;;;;1.53;1.43;;;26.90;94.20;;;;;;6312733;22;20421;-82
2023/09/03 08:15:59;;;;;;;1.93;1.83;;;27.90;95.60;;;;;;6315266;22;20468;-85
2023/09/03 08:18:25;;;;;;;0.90;0.90;;;27.80;92.90;;;;;;6325132;22;20808;-81
2023/09/03 08:20:53;;;;;;;1.40;1.30;;;28.00;92.80;;;;;;6329152;22;20388;-81
2023/09/03 08:23:20;;;;;;;0.90;0.90;;;27.50;93.60;;;;;;6320322;22;20431;-83
2023/09/03 08:25:47;;;;;;;1.07;1.07;;;27.00;93.30;;;;;;6316919;22;20404;-84
2023/09/03 08:28:15;;;;;;;2.07;1.97;;;26.00;94.20;;;;;;6321838;22;20425;-82
2023/09/03 08:30:42;;;;;;;1.00;1.00;;;25.20;94.60;;;;;;6313767;22;20412;-81
2023/09/03 08:33:09;;;;;;;0.80;0.80;;;24.80;95.90;;;;;;6311932;22;20441;-86
2023/09/03 08:35:36;;;;;;;2.07;1.97;;;25.10;96.70;;;;;;6313671;22;20423;-82
2023/09/03 08:38:04;;;;;;;1.20;1.20;;;25.10;96.30;;;;;;6313164;22;20393;-82
2023/09/03 08:40:32;;;;;;;1.03;1.03;;;25.30;96.50;;;;;;6313602;22;20422;-82
2023/09/03 08:43:01;;;;;;;1.10;1.10;;;26.20;94.90;;;;;;6313117;22;20397;-83
2023/09/03 08:45:32;;;;;;;1.27;1.27;;;26.50;94.60;;;;;;6321024;22;20383;-83
2023/09/03 08:48:00;;;;;;;0.97;0.97;;;26.20;93.60;;;;;;6312130;22;20402;-79
2023/09/03 08:50:29;;;;;;;1.53;1.43;;;25.70;95.30;;;;;;6313401;22;20583;-81
2023/09/03 08:52:57;;;;;;;1.00;1.00;;;25.60;95.50;;;;;;6312883;22;20411;-80
2023/09/03 08:55:25;;;;;;;0.80;0.80;;;24.90;95.60;;;;;;6317083;22;20461;-83
2023/09/03 08:57:54;;;;;;;0.80;0.80;;;24.60;96.60;;;;;;6312734;22;20405;-81
2023/09/03 09:00:24;;;;;;;1.87;0.97;;;24.20;97.50;;;;;;6312878;22;20439;-84
2023/09/03 09:02:52;;;;;;;1.87;1.77;;;24.00;98.60;;;;;;6313587;22;20368;-81
2023/09/03 09:05:20;;;;;;;0.70;0.70;;;23.60;98.50;;;;;;6314855;22;20416;-85
2023/09/03 09:07:50;;;;;;;1.10;1.00;;;23.40;99.60;;;;;;6283806;22;20413;-83
2023/09/03 09:10:22;;;;;;;0.83;0.83;;;23.20;99.90;;;;;;6281507;22;20430;-81
2023/09/03 09:12:56;;;;;;;2.40;2.30;;;23.20;99.90;;;;;;6281994;22;20354;-88
2023/09/03 09:15:23;;;;;;;1.37;1.27;;;23.40;99.90;;;;;;6285860;22;20470;-84
2023/09/03 09:17:50;;;;;;;1.63;1.53;;;23.60;99.90;;;;;;6283912;22;20414;-81
2023/09/03 09:20:20;;;;;;;0.83;0.83;;;23.70;99.40;;;;;;6287242;22;20357;-80
2023/09/03 09:22:50;;;;;;;0.70;0.70;;;23.70;98.90;;;;;;6288617;22;20694;-82
2023/09/03 09:25:27;;;;;;;1.03;1.00;;;23.80;98.70;;;;;;6282767;22;20448;-86
2023/09/03 09:27:55;;;;;;;1.80;1.70;;;24.50;98.00;;;;;;6280058;22;20418;-81
2023/09/03 09:30:25;;;;;;;0.90;0.90;;;25.00;97.50;;;;;;6283256;22;20377;-85
2023/09/03 09:33:03;;;;;;;0.90;0.90;;;24.80;97.70;;;;;;6280663;22;20561;-83
2023/09/03 09:35:31;;;;;;;0.80;0.80;;;24.70;98.10;;;;;;6283594;22;20402;-82
2023/09/03 09:38:07;;;;;;;1.20;1.20;;;24.20;97.60;;;;;;6289295;22;20939;-80
2023/09/03 09:40:36;;;;;;;0.70;0.70;;;23.90;98.50;;;;;;6287587;22;20516;-82
2023/09/03 09:43:10;;;;;;;0.80;0.80;;;23.90;99.30;;;;;;6284248;22;20439;-84
2023/09/03 09:45:51;;;;;;;1.83;1.73;;;23.70;98.70;;;;;;6288188;22;20365;-86
2023/09/03 09:48:18;;;;;;;1.63;1.43;;;23.60;99.90;;;;;;6288050;22;20388;-83
2023/09/03 09:50:47;;;;;;;0.80;0.80;;;23.60;99.90;;;;;;6283290;22;20440;-82
2023/09/03 09:53:23;;;;;;;0.73;0.73;;;23.80;99.40;;;;;;6281711;22;20557;-82
2023/09/03 09:56:07;;;;;;;2.40;2.30;;;23.80;99.90;;;;;;6284602;22;20502;-80
2023/09/03 09:58:39;;;;;;;1.97;1.87;;;24.00;99.90;;;;;;6284849;22;20372;-81
2023/09/03 10:01:08;;;;;;;1.00;1.00;;;24.00;99.80;;;;;;6288539;22;20363;-81
2023/09/03 10:03:49;;;;;;;3.17;2.03;;;23.80;99.90;;;;;;6282891;22;20456;-83
2023/09/03 10:06:18;;;;;;;1.93;1.83;;;24.10;99.90;;;;;;6280651;22;20407;-81
2023/09/03 10:08:47;;;;;;;0.70;0.70;;;24.10;99.00;;;;;;6283294;22;20397;-82
2023/09/03 10:11:18;;;;;;;1.00;1.00;;;24.20;99.50;;;;;;6291364;22;20405;-82
2023/09/03 10:13:47;;;;;;;0.93;0.93;;;24.40;99.90;;;;;;6285265;22;20378;-82
2023/09/03 10:16:19;;;;;;;1.60;1.50;;;24.20;99.80;;;;;;6281216;22;20373;-82
2023/09/03 10:18:49;;;;;;;0.70;0.70;;;24.00;99.60;;;;;;6280592;22;20601;-83
2023/09/03 10:21:26;;;;;;;2.13;2.00;;;23.90;99.80;;;;;;6280869;22;20466;-86
2023/09/03 10:24:19;;;;;;;1.20;1.20;;;24.10;99.10;;;;;;6301476;22;20371;-85
2023/09/03 10:26:52;;;;;;;0.83;0.83;;;24.00;99.60;;;;;;6282135;22;20593;-86
2023/09/03 10:29:21;;;;;;;1.77;1.67;;;24.10;99.90;;;;;;6282799;22;20410;-85
2023/09/03 10:31:50;;;;;;;1.10;1.10;;;24.80;99.40;;;;;;6282948;22;20466;-83
2023/09/03 10:34:19;;;;;;;1.53;1.20;;;24.90;98.00;;;;;;6282698;22;20398;-84
2023/09/03 10:37:09;;;;;;;2.13;1.73;;;25.30;97.20;;;;;;6283677;22;20390;-84
2023/09/03 10:39:43;;;;;;;1.50;1.40;;;25.20;96.60;;;;;;6281564;22;20742;-85
2023/09/03 10:42:16;;;;;;;0.80;0.80;;;25.40;97.50;;;;;;6283820;22;20389;-84
2023/09/03 10:44:55;;;;;;;1.63;1.53;;;24.80;97.70;;;;;;6279760;22;20402;-85
2023/09/03 10:47:34;;;;;;;1.97;1.87;;;24.80;97.90;;;;;;6281930;22;20794;-87
2023/09/03 10:50:01;;;;;;;1.97;1.87;;;24.30;99.40;;;;;;6283912;22;20353;-82
2023/09/03 10:52:30;;;;;;;1.53;1.43;;;24.20;97.60;;;;;;6283850;22;20796;-84
2023/09/03 10:55:13;;;;;;;3.50;1.07;;;23.90;98.90;;;;;;6284902;22;20730;-83
2023/09/03 10:57:41;;;;;;;0.90;0.90;;;23.90;98.60;;;;;;6289556;22;20602;-84
2023/09/03 11:00:16;;;;;;;0.90;0.90;;;24.20;97.70;;;;;;6294139;22;20485;-87
2023/09/03 11:02:44;;;;;;;1.07;1.07;;;24.50;96.30;;;;;;6290830;22;20368;-83
2023/09/03 11:05:22;;;;;;;0.80;0.80;;;24.40;96.00;;;;;;6291681;22;20516;-83
2023/09/03 11:08:33;;;;;;;1.07;1.07;;;24.10;94.00;;;;;;6289409;22;20380;-84
2023/09/03 11:11:01;;;;;;;0.90;0.90;;;23.70;94.10;;;;;;6284288;22;20345;-82
2023/09/03 11:13:30;;;;;;;0.60;0.60;;;23.30;94.80;;;;;;6284054;22;20462;-84
2023/09/03 11:16:05;;;;;;;1.10;1.00;;;23.40;94.30;;;;;;6282662;22;20386;-83
2023/09/03 11:18:35;;;;;;;0.70;0.70;;;23.70;93.80;;;;;;6286107;22;20539;-86
2023/09/03 11:21:04;;;;;;;0.60;0.60;;;23.80;93.10;;;;;;6286730;22;20588;-85
2023/09/03 11:23:31;;;;;;;0.70;0.70;;;23.60;92.50;;;;;;6284023;22;20397;-85
2023/09/03 11:26:05;;;;;;;0.83;0.83;;;23.60;92.90;;;;;;6284642;22;20553;-81
2023/09/03 11:28:36;;;;;;;0.70;0.70;;;23.50;92.70;;;;;;6285903;22;20624;-86
2023/09/03 11:31:04;;;;;;;0.90;0.90;;;23.10;93.80;;;;;;6288281;22;20739;-84
2023/09/03 11:33:31;;;;;;;2.53;2.40;;;23.10;93.60;;;;;;6287007;22;20548;-83
2023/09/03 11:36:06;;;;;;;0.70;0.70;;;23.30;92.80;;;;;;6288498;22;20415;-85
2023/09/03 11:38:34;;;;;;;0.73;0.73;;;23.20;91.90;;;;;;6289888;22;20404;-81
2023/09/03 11:41:03;;;;;;;0.80;0.80;;;23.20;92.50;;;;;;6288320;22;20374;-83
2023/09/03 11:43:35;;;;;;;0.70;0.70;;;23.30;92.40;;;;;;6289706;22;20402;-82
2023/09/03 11:46:11;;;;;;;0.70;0.70;;;23.30;91.20;;;;;;6290684;22;20382;-84
2023/09/03 11:48:41;;;;;;;1.00;1.00;;;23.40;91.20;;;;;;6290406;22;20351;-82
2023/09/03 11:51:09;;;;;;;0.73;0.73;;;23.40;91.70;;;;;;6293576;22;20391;-83
2023/09/03 11:53:53;;;;;;;0.80;0.80;;;23.50;91.20;;;;;;6298148;22;20392;-84
2023/09/03 11:56:22;;;;;;;1.10;1.10;;;23.70;91.60;;;;;;6296860;22;20365;-84
2023/09/03 11:59:00;;;;;;;1.37;1.27;;;23.50;90.50;;;;;;6292166;22;20368;-83
2023/09/03 12:01:28;;;;;;;0.70;0.70;;;23.20;90.50;;;;;;6291540;22;20371;-85
2023/09/03 12:03:58;;;;;;;1.80;1.20;;;23.30;91.20;;;;;;6293148;22;20397;-82
2023/09/03 12:06:25;;;;;;;0.70;0.70;;;23.50;91.40;;;;;;6298943;22;20385;-81
2023/09/03 12:08:52;;;;;;;1.20;1.17;;;23.60;91.20;;;;;;6300375;22;20400;-80
2023/09/03 12:11:27;;;;;;;0.97;0.97;;;23.70;90.70;;;;;;6295956;22;20469;-83
2023/09/03 12:13:56;;;;;;;0.90;0.90;;;23.80;90.20;;;;;;6285418;22;20448;-84
2023/09/03 12:16:24;;;;;;;0.97;0.97;;;23.50;91.20;;;;;;6311409;22;20374;-86
2023/09/03 12:18:59;;;;;;;0.70;0.70;;;23.60;90.10;;;;;;6286130;22;20384;-84
2023/09/03 12:21:35;;;;;;;0.70;0.70;;;23.40;88.30;;;;;;6286230;22;20390;-82
2023/09/03 12:24:06;;;;;;;1.00;1.00;;;23.40;90.30;;;;;;6285386;22;20379;-85
2023/09/03 12:26:37;;;;;;;0.80;0.80;;;23.70;90.40;;;;;;6286398;22;20392;-84
2023/09/03 12:29:18;;;;;;;0.70;0.70;;;24.00;89.10;;;;;;6285748;22;20383;-85
2023/09/03 12:31:45;;;;;;;0.60;0.60;;;24.00;89.70;;;;;;6287271;22;20458;-85
2023/09/03 12:34:15;;;;;;;0.90;0.90;;;23.90;88.30;;;;;;6286736;22;20429;-81
2023/09/03 12:36:57;;;;;;;0.70;0.70;;;23.80;88.20;;;;;;6286810;22;20380;-86
2023/09/03 12:39:28;;;;;;;1.00;1.00;;;23.60;85.50;;;;;;6286253;22;20369;-84
2023/09/03 12:41:56;;;;;;;0.87;0.87;;;23.60;90.00;;;;;;6287706;22;20373;-84
2023/09/03 12:44:28;;;;;;;0.83;0.83;;;23.40;90.10;;;;;;6283938;22;20402;-88
2023/09/03 12:47:03;;;;;;;1.00;1.00;;;23.30;90.60;;;;;;6290735;22;20347;-85
2023/09/03 12:49:30;;;;;;;0.70;0.70;;;23.10;91.00;;;;;;6285051;22;20435;-86
2023/09/03 12:51:58;;;;;;;0.70;0.70;;;23.10;91.60;;;;;;6286586;22;20425;-85
2023/09/03 12:54:27;;;;;;;0.60;0.60;;;23.10;90.80;;;;;;6283832;22;20377;-88
2023/09/03 12:56:55;;;;;;;0.90;0.90;;;23.20;91.30;;;;;;6285238;22;20401;-86
2023/09/03 12:59:21;;;;;;;0.67;0.67;;;23.20;91.30;;;;;;6285513;22;20769;-83
2023/09/03 13:01:49;;;;;;;0.67;0.67;;;23.30;91.70;;;;;;6285541;22;20434;-87
2023/09/03 13:04:19;;;;;;;1.20;1.20;;;23.40;91.20;;;;;;6283129;22;20375;-85
2023/09/03 13:06:46;;;;;;;0.80;0.80;;;23.60;91.70;;;;;;6284383;22;20373;-84
2023/09/03 13:09:13;;;;;;;0.60;0.60;;;24.00;91.50;;;;;;6286341;22;20611;-84
2023/09/03 13:11:41;;;;;;;0.70;0.70;;;23.70;90.60;;;;;;6284581;22;20436;-87
2023/09/03 13:14:08;;;;;;;0.70;0.70;;;23.70;90.70;;;;;;6284269;22;20367;-83
2023/09/03 13:16:35;;;;;;;0.90;0.90;;;23.40;90.50;;;;;;6284658;22;20421;-86
2023/09/03 13:19:02;;;;;;;0.60;0.60;;;23.50;90.90;;;;;;6285177;22;20431;-84
2023/09/03 13:21:35;;;;;;;0.70;0.70;;;23.40;91.60;;;;;;6285049;22;20452;-85
2023/09/03 13:24:03;;;;;;;1.30;1.20;;;23.60;92.20;;;;;;6287605;22;20430;-85
2023/09/03 13:26:37;;;;;;;0.60;0.60;;;23.40;91.60;;;;;;6287925;22;20383;-86
2023/09/03 13:29:07;;;;;;;0.90;0.90;;;23.40;91.40;;;;;;6285415;22;20404;-85
2023/09/03 13:31:49;;;;;;;;;;;;;;;;;;;;;
2023/09/03 13:34:18;;;;;;;0.90;0.90;;;23.20;90.70;;;;;;6287811;22;20877;-84
2023/09/03 13:36:46;;;;;;;0.77;0.77;;;23.30;91.10;;;;;;6287788;22;20433;-83
2023/09/03 13:39:22;;;;;;;0.90;0.90;;;23.30;90.30;;;;;;6287338;22;20390;-85
2023/09/03 13:41:51;;;;;;;0.70;0.70;;;23.30;90.60;;;;;;6290513;22;20468;-84
2023/09/03 13:44:18;;;;;;;0.90;0.90;;;23.10;90.40;;;;;;6289644;22;20727;-87